sensor_id;sensor_type;location;lat;lon;timestamp;temperature;humidity
25923;DHT22;13725;51.170;4.442;2023-09-08T00:01:38;21.70;99.90
25923;DHT22;13725;51.170;4.442;2023-09-08T00:04:04;21.60;99.90
25923;DHT22;13725;51.170;4.442;2023-09-08T00:06:30;21.70;99.90
25923;DHT22;13725;51.170;4.442;2023-09-08T00:08:56;21.70;99.90
25923;DHT22;13725;51.170;4.442;2023-09-08T00:11:22;21.60;99.90
25923;DHT22;13725;51.170;4.442;2023-09-08T00:13:48;21.60;99.90
25923;DHT22;13725;51.170;4.442;2023-09-08T00:16:16;21.60;99.90
25923;DHT22;13725;51.170;4.442;2023-09-08T00:18:42;21.60;99.90
25923;DHT22;13725;51.170;4.442;2023-09-08T00:21:08;21.60;99.90
25923;DHT22;13725;51.170;4.442;2023-09-08T00:23:33;21.60;99.90
25923;DHT22;13725;51.170;4.442;2023-09-08T00:25:59;21.60;99.90
25923;DHT22;13725;51.170;4.442;2023-09-08T00:28:25;21.60;99.90
25923;DHT22;13725;51.170;4.442;2023-09-08T00:30:51;21.50;99.90
25923;DHT22;13725;51.170;4.442;2023-09-08T00:33:16;21.50;99.90
25923;DHT22;13725;51.170;4.442;2023-09-08T00:35:48;21.50;99.90
25923;DHT22;13725;51.170;4.442;2023-09-08T00:38:14;21.40;99.90
25923;DHT22;13725;51.170;4.442;2023-09-08T00:40:40;21.40;99.90
25923;DHT22;13725;51.170;4.442;2023-09-08T00:43:06;21.30;99.90
25923;DHT22;13725;51.170;4.442;2023-09-08T00:45:33;21.30;99.90
25923;DHT22;13725;51.170;4.442;2023-09-08T00:48:03;21.30;99.90
25923;DHT22;13725;51.170;4.442;2023-09-08T00:50:29;21.30;99.90
25923;DHT22;13725;51.170;4.442;2023-09-08T00:52:55;21.20;99.90
25923;DHT22;13725;51.170;4.442;2023-09-08T00:55:21;21.20;99.90
25923;DHT22;13725;51.170;4.442;2023-09-08T00:57:47;21.20;99.90
25923;DHT22;13725;51.170;4.442;2023-09-08T01:00:13;21.10;99.90
25923;DHT22;13725;51.170;4.442;2023-09-08T01:02:39;21.10;99.90
25923;DHT22;13725;51.170;4.442;2023-09-08T01:05:05;21.10;99.90
25923;DHT22;13725;51.170;4.442;2023-09-08T01:07:32;21.00;99.90
25923;DHT22;13725;51.170;4.442;2023-09-08T01:09:58;21.00;99.90
25923;DHT22;13725;51.170;4.442;2023-09-08T01:12:29;21.00;99.90
25923;DHT22;13725;51.170;4.442;2023-09-08T01:14:55;20.90;99.90
25923;DHT22;13725;51.170;4.442;2023-09-08T01:17:21;20.90;99.90
25923;DHT22;13725;51.170;4.442;2023-09-08T01:19:47;20.80;99.90
25923;DHT22;13725;51.170;4.442;2023-09-08T01:25:18;20.80;99.90
25923;DHT22;13725;51.170;4.442;2023-09-08T01:27:53;20.80;99.90
25923;DHT22;13725;51.170;4.442;2023-09-08T01:30:21;20.80;99.90
25923;DHT22;13725;51.170;4.442;2023-09-08T01:32:47;20.80;99.90
25923;DHT22;13725;51.170;4.442;2023-09-08T01:35:14;20.70;99.90
25923;DHT22;13725;51.170;4.442;2023-09-08T01:37:42;20.70;99.90
25923;DHT22;13725;51.170;4.442;2023-09-08T01:40:08;20.70;99.90
25923;DHT22;13725;51.170;4.442;2023-09-08T01:42:36;20.60;99.90
25923;DHT22;13725;51.170;4.442;2023-09-08T01:45:02;20.60;99.90
25923;DHT22;13725;51.170;4.442;2023-09-08T01:47:29;20.60;99.90
25923;DHT22;13725;51.170;4.442;2023-09-08T01:49:55;20.60;99.90
25923;DHT22;13725;51.170;4.442;2023-09-08T01:52:21;20.60;99.90
25923;DHT22;13725;51.170;4.442;2023-09-08T01:54:47;20.50;99.90
25923;DHT22;13725;51.170;4.442;2023-09-08T01:57:13;20.50;99.90
25923;DHT22;13725;51.170;4.442;2023-09-08T01:59:39;20.50;99.90
25923;DHT22;13725;51.170;4.442;2023-09-08T02:02:05;20.50;99.90
25923;DHT22;13725;51.170;4.442;2023-09-08T02:04:32;20.50;99.90
25923;DHT22;13725;51.170;4.442;2023-09-08T02:06:58;20.50;99.90
25923;DHT22;13725;51.170;4.442;2023-09-08T02:09:32;20.50;99.90
25923;DHT22;13725;51.170;4.442;2023-09-08T02:11:58;20.50;99.90
25923;DHT22;13725;51.170;4.442;2023-09-08T02:14:24;20.50;99.90
25923;DHT22;13725;51.170;4.442;2023-09-08T02:16:50;20.40;99.90
25923;DHT22;13725;51.170;4.442;2023-09-08T02:19:16;20.40;99.90
25923;DHT22;13725;51.170;4.442;2023-09-08T02:21:42;20.40;99.90
25923;DHT22;13725;51.170;4.442;2023-09-08T02:24:08;20.40;99.90
25923;DHT22;13725;51.170;4.442;2023-09-08T02:26:35;20.30;99.90
25923;DHT22;13725;51.170;4.442;2023-09-08T02:29:01;20.30;99.90
25923;DHT22;13725;51.170;4.442;2023-09-08T02:31:27;20.30;99.90
25923;DHT22;13725;51.170;4.442;2023-09-08T02:33:54;20.30;99.90
25923;DHT22;13725;51.170;4.442;2023-09-08T02:36:20;20.30;99.90
25923;DHT22;13725;51.170;4.442;2023-09-08T02:38:55;20.30;99.90
25923;DHT22;13725;51.170;4.442;2023-09-08T02:41:22;20.20;99.90
25923;DHT22;13725;51.170;4.442;2023-09-08T02:43:49;20.20;99.90
25923;DHT22;13725;51.170;4.442;2023-09-08T02:46:15;20.30;99.90
25923;DHT22;13725;51.170;4.442;2023-09-08T02:48:41;20.20;99.90
25923;DHT22;13725;51.170;4.442;2023-09-08T02:51:07;20.20;99.90
25923;DHT22;13725;51.170;4.442;2023-09-08T02:53:33;20.20;99.90
25923;DHT22;13725;51.170;4.442;2023-09-08T02:56:00;20.20;99.90
25923;DHT22;13725;51.170;4.442;2023-09-08T02:58:26;20.20;99.90
25923;DHT22;13725;51.170;4.442;2023-09-08T03:00:52;20.20;99.90
25923;DHT22;13725;51.170;4.442;2023-09-08T03:03:19;20.10;99.90
25923;DHT22;13725;51.170;4.442;2023-09-08T03:05:45;20.10;99.90
25923;DHT22;13725;51.170;4.442;2023-09-08T03:08:11;20.00;99.90
25923;DHT22;13725;51.170;4.442;2023-09-08T03:10:37;20.00;99.90
25923;DHT22;13725;51.170;4.442;2023-09-08T03:13:04;19.90;99.90
25923;DHT22;13725;51.170;4.442;2023-09-08T03:15:30;19.90;99.90
25923;DHT22;13725;51.170;4.442;2023-09-08T03:17:56;19.90;99.90
25923;DHT22;13725;51.170;4.442;2023-09-08T03:20:24;19.90;99.90
25923;DHT22;13725;51.170;4.442;2023-09-08T03:22:52;19.90;99.90
25923;DHT22;13725;51.170;4.442;2023-09-08T03:25:18;19.90;99.90
25923;DHT22;13725;51.170;4.442;2023-09-08T03:27:44;19.90;99.90
25923;DHT22;13725;51.170;4.442;2023-09-08T03:30:10;19.80;99.90
25923;DHT22;13725;51.170;4.442;2023-09-08T03:32:37;19.80;99.90
25923;DHT22;13725;51.170;4.442;2023-09-08T03:35:05;19.80;99.90
25923;DHT22;13725;51.170;4.442;2023-09-08T03:37:35;19.80;99.90
25923;DHT22;13725;51.170;4.442;2023-09-08T03:40:01;19.80;99.90
25923;DHT22;13725;51.170;4.442;2023-09-08T03:42:27;19.70;99.90
25923;DHT22;13725;51.170;4.442;2023-09-08T03:44:52;19.70;99.90
25923;DHT22;13725;51.170;4.442;2023-09-08T03:47:18;19.70;99.90
25923;DHT22;13725;51.170;4.442;2023-09-08T03:49:44;19.70;99.90
25923;DHT22;13725;51.170;4.442;2023-09-08T03:52:11;19.60;99.90
25923;DHT22;13725;51.170;4.442;2023-09-08T03:54:37;19.60;99.90
25923;DHT22;13725;51.170;4.442;2023-09-08T03:57:03;19.50;99.90
25923;DHT22;13725;51.170;4.442;2023-09-08T03:59:29;19.50;99.90
25923;DHT22;13725;51.170;4.442;2023-09-08T04:01:55;19.50;99.90
25923;DHT22;13725;51.170;4.442;2023-09-08T04:04:21;19.50;99.90
25923;DHT22;13725;51.170;4.442;2023-09-08T04:06:47;19.50;99.90
25923;DHT22;13725;51.170;4.442;2023-09-08T04:09:13;19.40;99.90
25923;DHT22;13725;51.170;4.442;2023-09-08T04:11:39;19.40;99.90
25923;DHT22;13725;51.170;4.442;2023-09-08T04:14:05;19.40;99.90
25923;DHT22;13725;51.170;4.442;2023-09-08T04:16:30;19.40;99.90
25923;DHT22;13725;51.170;4.442;2023-09-08T04:18:57;19.40;99.90
25923;DHT22;13725;51.170;4.442;2023-09-08T04:21:23;19.30;99.90
25923;DHT22;13725;51.170;4.442;2023-09-08T04:23:49;19.30;99.90
25923;DHT22;13725;51.170;4.442;2023-09-08T04:26:15;19.30;99.90
25923;DHT22;13725;51.170;4.442;2023-09-08T04:28:41;19.20;99.90
25923;DHT22;13725;51.170;4.442;2023-09-08T04:31:07;19.20;99.90
25923;DHT22;13725;51.170;4.442;2023-09-08T04:33:32;19.20;99.90
25923;DHT22;13725;51.170;4.442;2023-09-08T04:35:58;19.20;99.90
25923;DHT22;13725;51.170;4.442;2023-09-08T04:38:25;19.20;99.90
25923;DHT22;13725;51.170;4.442;2023-09-08T04:40:50;19.10;99.90
25923;DHT22;13725;51.170;4.442;2023-09-08T04:43:17;19.20;99.90
25923;DHT22;13725;51.170;4.442;2023-09-08T04:45:43;19.10;99.90
25923;DHT22;13725;51.170;4.442;2023-09-08T04:48:10;19.10;99.90
25923;DHT22;13725;51.170;4.442;2023-09-08T04:50:35;19.10;99.90
25923;DHT22;13725;51.170;4.442;2023-09-08T04:53:01;19.10;99.90
25923;DHT22;13725;51.170;4.442;2023-09-08T04:55:28;19.10;99.90
25923;DHT22;13725;51.170;4.442;2023-09-08T04:57:54;19.10;99.90
25923;DHT22;13725;51.170;4.442;2023-09-08T05:00:20;19.00;99.90
25923;DHT22;13725;51.170;4.442;2023-09-08T05:02:47;19.00;99.90
25923;DHT22;13725;51.170;4.442;2023-09-08T05:05:13;19.00;99.90
25923;DHT22;13725;51.170;4.442;2023-09-08T05:07:39;19.00;99.90
25923;DHT22;13725;51.170;4.442;2023-09-08T05:10:05;19.00;99.90
25923;DHT22;13725;51.170;4.442;2023-09-08T05:12:34;19.00;99.90
25923;DHT22;13725;51.170;4.442;2023-09-08T05:15:03;19.10;99.90
25923;DHT22;13725;51.170;4.442;2023-09-08T05:17:37;19.00;99.90
25923;DHT22;13725;51.170;4.442;2023-09-08T05:20:03;19.00;99.90
25923;DHT22;13725;51.170;4.442;2023-09-08T05:22:29;19.00;99.90
25923;DHT22;13725;51.170;4.442;2023-09-08T05:24:57;19.10;99.90
25923;DHT22;13725;51.170;4.442;2023-09-08T05:27:23;19.10;99.90
25923;DHT22;13725;51.170;4.442;2023-09-08T05:29:48;19.10;99.90
25923;DHT22;13725;51.170;4.442;2023-09-08T05:32:14;19.20;99.90
25923;DHT22;13725;51.170;4.442;2023-09-08T05:34:40;19.20;99.90
25923;DHT22;13725;51.170;4.442;2023-09-08T05:37:06;19.30;99.90
25923;DHT22;13725;51.170;4.442;2023-09-08T05:39:33;19.30;99.90
25923;DHT22;13725;51.170;4.442;2023-09-08T05:41:59;19.30;99.90
25923;DHT22;13725;51.170;4.442;2023-09-08T05:44:24;19.40;99.90
25923;DHT22;13725;51.170;4.442;2023-09-08T05:46:52;19.50;99.90
25923;DHT22;13725;51.170;4.442;2023-09-08T05:49:18;19.50;99.90
25923;DHT22;13725;51.170;4.442;2023-09-08T05:51:44;19.60;99.90
25923;DHT22;13725;51.170;4.442;2023-09-08T05:54:10;19.60;99.90
25923;DHT22;13725;51.170;4.442;2023-09-08T05:56:38;19.80;99.90
25923;DHT22;13725;51.170;4.442;2023-09-08T05:59:04;20.10;99.90
25923;DHT22;13725;51.170;4.442;2023-09-08T06:01:31;20.50;99.90
25923;DHT22;13725;51.170;4.442;2023-09-08T06:03:58;21.00;99.90
25923;DHT22;13725;51.170;4.442;2023-09-08T06:06:25;21.60;99.90
25923;DHT22;13725;51.170;4.442;2023-09-08T06:08:51;22.00;99.90
25923;DHT22;13725;51.170;4.442;2023-09-08T06:11:17;22.30;99.90
25923;DHT22;13725;51.170;4.442;2023-09-08T06:13:43;22.90;99.90
25923;DHT22;13725;51.170;4.442;2023-09-08T06:16:09;23.50;99.90
25923;DHT22;13725;51.170;4.442;2023-09-08T06:18:35;24.40;99.90
25923;DHT22;13725;51.170;4.442;2023-09-08T06:21:07;25.00;99.90
25923;DHT22;13725;51.170;4.442;2023-09-08T06:23:34;25.80;99.90
25923;DHT22;13725;51.170;4.442;2023-09-08T06:26:01;26.50;99.90
25923;DHT22;13725;51.170;4.442;2023-09-08T06:28:30;27.30;99.90
25923;DHT22;13725;51.170;4.442;2023-09-08T06:30:57;27.80;99.90
25923;DHT22;13725;51.170;4.442;2023-09-08T06:33:22;28.40;99.90
25923;DHT22;13725;51.170;4.442;2023-09-08T06:35:49;28.70;99.90
25923;DHT22;13725;51.170;4.442;2023-09-08T06:38:15;29.30;99.90
25923;DHT22;13725;51.170;4.442;2023-09-08T06:40:41;30.00;99.90
25923;DHT22;13725;51.170;4.442;2023-09-08T06:43:07;30.70;99.90
25923;DHT22;13725;51.170;4.442;2023-09-08T06:45:49;31.30;99.90
25923;DHT22;13725;51.170;4.442;2023-09-08T06:48:15;31.40;99.90
25923;DHT22;13725;51.170;4.442;2023-09-08T06:50:42;31.60;99.90
25923;DHT22;13725;51.170;4.442;2023-09-08T06:53:08;31.80;99.90
25923;DHT22;13725;51.170;4.442;2023-09-08T06:55:34;31.50;99.90
25923;DHT22;13725;51.170;4.442;2023-09-08T06:58:00;31.40;99.90
25923;DHT22;13725;51.170;4.442;2023-09-08T07:00:26;31.90;99.90
25923;DHT22;13725;51.170;4.442;2023-09-08T07:02:53;32.10;99.90
25923;DHT22;13725;51.170;4.442;2023-09-08T07:05:19;32.60;99.90
25923;DHT22;13725;51.170;4.442;2023-09-08T07:07:45;32.90;99.90
25923;DHT22;13725;51.170;4.442;2023-09-08T07:10:11;33.60;99.90
25923;DHT22;13725;51.170;4.442;2023-09-08T07:12:37;34.10;99.90
25923;DHT22;13725;51.170;4.442;2023-09-08T07:15:03;34.50;99.90
25923;DHT22;13725;51.170;4.442;2023-09-08T07:17:29;34.60;99.90
25923;DHT22;13725;51.170;4.442;2023-09-08T07:19:55;34.70;99.90
25923;DHT22;13725;51.170;4.442;2023-09-08T07:22:21;34.90;99.90
25923;DHT22;13725;51.170;4.442;2023-09-08T07:24:47;35.20;99.40
25923;DHT22;13725;51.170;4.442;2023-09-08T07:27:14;35.70;98.20
25923;DHT22;13725;51.170;4.442;2023-09-08T07:29:40;35.90;96.80
25923;DHT22;13725;51.170;4.442;2023-09-08T07:32:07;36.60;95.70
25923;DHT22;13725;51.170;4.442;2023-09-08T07:34:33;37.30;93.70
25923;DHT22;13725;51.170;4.442;2023-09-08T07:37:00;37.90;92.80
25923;DHT22;13725;51.170;4.442;2023-09-08T07:39:26;37.80;91.30
25923;DHT22;13725;51.170;4.442;2023-09-08T07:41:53;38.40;90.80
25923;DHT22;13725;51.170;4.442;2023-09-08T07:44:19;39.00;90.00
25923;DHT22;13725;51.170;4.442;2023-09-08T07:46:45;39.70;87.50
25923;DHT22;13725;51.170;4.442;2023-09-08T07:49:14;40.30;84.10
25923;DHT22;13725;51.170;4.442;2023-09-08T07:51:40;40.90;82.20
25923;DHT22;13725;51.170;4.442;2023-09-08T07:54:06;41.30;79.30
25923;DHT22;13725;51.170;4.442;2023-09-08T07:56:33;41.80;77.50
25923;DHT22;13725;51.170;4.442;2023-09-08T07:59:00;42.30;75.50
25923;DHT22;13725;51.170;4.442;2023-09-08T08:01:26;42.60;74.10
25923;DHT22;13725;51.170;4.442;2023-09-08T08:03:51;43.00;73.10
25923;DHT22;13725;51.170;4.442;2023-09-08T08:06:17;43.20;71.50
25923;DHT22;13725;51.170;4.442;2023-09-08T08:08:43;43.20;69.80
25923;DHT22;13725;51.170;4.442;2023-09-08T08:11:13;42.80;69.80
25923;DHT22;13725;51.170;4.442;2023-09-08T08:13:40;42.80;70.80
25923;DHT22;13725;51.170;4.442;2023-09-08T08:16:06;43.30;69.40
25923;DHT22;13725;51.170;4.442;2023-09-08T08:18:32;43.90;69.20
25923;DHT22;13725;51.170;4.442;2023-09-08T08:20:58;44.40;68.30
25923;DHT22;13725;51.170;4.442;2023-09-08T08:23:23;44.90;66.60
25923;DHT22;13725;51.170;4.442;2023-09-08T08:25:49;45.40;65.90
25923;DHT22;13725;51.170;4.442;2023-09-08T08:28:16;45.70;64.70
25923;DHT22;13725;51.170;4.442;2023-09-08T08:30:42;45.80;64.30
25923;DHT22;13725;51.170;4.442;2023-09-08T08:33:08;46.00;63.10
25923;DHT22;13725;51.170;4.442;2023-09-08T08:35:34;45.90;63.10
25923;DHT22;13725;51.170;4.442;2023-09-08T08:38:00;45.90;63.20
25923;DHT22;13725;51.170;4.442;2023-09-08T08:40:26;45.90;61.80
25923;DHT22;13725;51.170;4.442;2023-09-08T08:42:57;46.10;61.70
25923;DHT22;13725;51.170;4.442;2023-09-08T08:45:24;46.10;62.30
25923;DHT22;13725;51.170;4.442;2023-09-08T08:47:53;45.80;61.10
25923;DHT22;13725;51.170;4.442;2023-09-08T08:50:20;46.10;62.00
25923;DHT22;13725;51.170;4.442;2023-09-08T08:52:46;46.20;60.60
25923;DHT22;13725;51.170;4.442;2023-09-08T08:55:12;46.50;61.30
25923;DHT22;13725;51.170;4.442;2023-09-08T08:57:40;47.10;60.20
25923;DHT22;13725;51.170;4.442;2023-09-08T09:00:08;47.50;59.60
25923;DHT22;13725;51.170;4.442;2023-09-08T09:02:41;47.80;58.80
25923;DHT22;13725;51.170;4.442;2023-09-08T09:05:13;47.70;57.60
25923;DHT22;13725;51.170;4.442;2023-09-08T09:07:41;47.30;57.80
25923;DHT22;13725;51.170;4.442;2023-09-08T09:10:07;47.40;58.80
25923;DHT22;13725;51.170;4.442;2023-09-08T09:12:33;47.60;58.80
25923;DHT22;13725;51.170;4.442;2023-09-08T09:15:02;47.70;59.20
25923;DHT22;13725;51.170;4.442;2023-09-08T09:17:32;48.20;57.60
25923;DHT22;13725;51.170;4.442;2023-09-08T09:20:18;47.60;56.80
25923;DHT22;13725;51.170;4.442;2023-09-08T09:22:46;47.50;56.80
25923;DHT22;13725;51.170;4.442;2023-09-08T09:25:26;47.40;56.30
25923;DHT22;13725;51.170;4.442;2023-09-08T09:27:57;47.10;56.20
25923;DHT22;13725;51.170;4.442;2023-09-08T09:30:23;47.20;56.60
25923;DHT22;13725;51.170;4.442;2023-09-08T09:33:10;47.40;57.40
25923;DHT22;13725;51.170;4.442;2023-09-08T09:35:43;48.20;56.60
25923;DHT22;13725;51.170;4.442;2023-09-08T09:38:11;48.60;57.00
25923;DHT22;13725;51.170;4.442;2023-09-08T09:40:37;49.10;56.30
25923;DHT22;13725;51.170;4.442;2023-09-08T09:43:05;49.50;56.30
25923;DHT22;13725;51.170;4.442;2023-09-08T09:45:33;50.00;56.00
25923;DHT22;13725;51.170;4.442;2023-09-08T09:47:59;49.70;54.20
25923;DHT22;13725;51.170;4.442;2023-09-08T09:50:33;49.30;54.80
25923;DHT22;13725;51.170;4.442;2023-09-08T09:53:00;49.70;55.50
25923;DHT22;13725;51.170;4.442;2023-09-08T09:55:27;50.00;55.90
25923;DHT22;13725;51.170;4.442;2023-09-08T09:57:57;50.40;53.90
25923;DHT22;13725;51.170;4.442;2023-09-08T10:00:30;50.60;54.20
25923;DHT22;13725;51.170;4.442;2023-09-08T10:02:56;51.00;54.50
25923;DHT22;13725;51.170;4.442;2023-09-08T10:05:23;51.50;54.50
25923;DHT22;13725;51.170;4.442;2023-09-08T10:07:50;51.80;53.00
25923;DHT22;13725;51.170;4.442;2023-09-08T10:10:17;51.90;53.70
25923;DHT22;13725;51.170;4.442;2023-09-08T10:12:52;52.10;53.50
25923;DHT22;13725;51.170;4.442;2023-09-08T10:15:21;52.30;53.20
25923;DHT22;13725;51.170;4.442;2023-09-08T10:17:54;52.30;53.10
25923;DHT22;13725;51.170;4.442;2023-09-08T10:20:25;52.50;52.40
25923;DHT22;13725;51.170;4.442;2023-09-08T10:25:32;52.60;52.50
25923;DHT22;13725;51.170;4.442;2023-09-08T10:28:01;52.40;51.70
25923;DHT22;13725;51.170;4.442;2023-09-08T10:30:29;52.40;50.50
25923;DHT22;13725;51.170;4.442;2023-09-08T10:32:56;52.50;51.60
25923;DHT22;13725;51.170;4.442;2023-09-08T10:35:22;52.60;50.80
25923;DHT22;13725;51.170;4.442;2023-09-08T10:37:49;52.70;49.80
25923;DHT22;13725;51.170;4.442;2023-09-08T10:40:25;52.60;50.30
25923;DHT22;13725;51.170;4.442;2023-09-08T10:43:22;52.50;51.60
25923;DHT22;13725;51.170;4.442;2023-09-08T10:45:50;52.30;50.10
25923;DHT22;13725;51.170;4.442;2023-09-08T10:48:16;52.10;49.90
25923;DHT22;13725;51.170;4.442;2023-09-08T10:50:42;51.90;51.40
25923;DHT22;13725;51.170;4.442;2023-09-08T10:53:12;52.10;50.10
25923;DHT22;13725;51.170;4.442;2023-09-08T10:55:49;52.20;51.50
25923;DHT22;13725;51.170;4.442;2023-09-08T10:58:20;52.10;51.90
25923;DHT22;13725;51.170;4.442;2023-09-08T11:00:54;52.30;50.50
25923;DHT22;13725;51.170;4.442;2023-09-08T11:03:27;52.60;50.80
25923;DHT22;13725;51.170;4.442;2023-09-08T11:05:53;52.60;50.00
25923;DHT22;13725;51.170;4.442;2023-09-08T11:08:19;52.60;50.40
25923;DHT22;13725;51.170;4.442;2023-09-08T11:10:45;52.60;50.30
25923;DHT22;13725;51.170;4.442;2023-09-08T11:13:11;52.70;50.50
25923;DHT22;13725;51.170;4.442;2023-09-08T11:15:37;52.80;49.80
25923;DHT22;13725;51.170;4.442;2023-09-08T11:18:06;52.80;48.40
25923;DHT22;13725;51.170;4.442;2023-09-08T11:20:33;52.90;48.40
25923;DHT22;13725;51.170;4.442;2023-09-08T11:22:59;52.80;49.80
25923;DHT22;13725;51.170;4.442;2023-09-08T11:25:25;52.70;47.80
25923;DHT22;13725;51.170;4.442;2023-09-08T11:27:51;52.40;48.60
25923;DHT22;13725;51.170;4.442;2023-09-08T11:30:17;52.30;49.20
25923;DHT22;13725;51.170;4.442;2023-09-08T11:32:43;52.00;49.90
25923;DHT22;13725;51.170;4.442;2023-09-08T11:35:10;52.00;49.80
25923;DHT22;13725;51.170;4.442;2023-09-08T11:37:40;51.90;49.30
25923;DHT22;13725;51.170;4.442;2023-09-08T11:40:08;51.80;47.60
25923;DHT22;13725;51.170;4.442;2023-09-08T11:42:38;51.70;47.70
25923;DHT22;13725;51.170;4.442;2023-09-08T11:45:12;51.10;47.60
25923;DHT22;13725;51.170;4.442;2023-09-08T11:47:40;50.60;48.90
25923;DHT22;13725;51.170;4.442;2023-09-08T11:50:08;50.90;49.80
25923;DHT22;13725;51.170;4.442;2023-09-08T11:52:34;51.30;48.80
25923;DHT22;13725;51.170;4.442;2023-09-08T11:55:00;51.60;48.40
25923;DHT22;13725;51.170;4.442;2023-09-08T11:57:27;51.70;50.10
25923;DHT22;13725;51.170;4.442;2023-09-08T11:59:53;51.70;49.50
25923;DHT22;13725;51.170;4.442;2023-09-08T12:02:19;52.00;49.60
25923;DHT22;13725;51.170;4.442;2023-09-08T12:04:45;51.90;49.60
25923;DHT22;13725;51.170;4.442;2023-09-08T12:07:14;51.80;47.50
25923;DHT22;13725;51.170;4.442;2023-09-08T12:09:45;51.60;47.70
25923;DHT22;13725;51.170;4.442;2023-09-08T12:12:14;51.20;47.60
25923;DHT22;13725;51.170;4.442;2023-09-08T12:14:41;51.10;47.30
25923;DHT22;13725;51.170;4.442;2023-09-08T12:17:07;51.00;49.20
25923;DHT22;13725;51.170;4.442;2023-09-08T12:19:34;50.70;47.90
25923;DHT22;13725;51.170;4.442;2023-09-08T12:22:04;50.50;47.90
25923;DHT22;13725;51.170;4.442;2023-09-08T12:24:49;50.30;49.80
25923;DHT22;13725;51.170;4.442;2023-09-08T12:27:18;50.50;48.30
25923;DHT22;13725;51.170;4.442;2023-09-08T12:29:58;50.20;48.80
25923;DHT22;13725;51.170;4.442;2023-09-08T12:32:28;50.50;50.60
25923;DHT22;13725;51.170;4.442;2023-09-08T12:34:54;50.10;50.50
25923;DHT22;13725;51.170;4.442;2023-09-08T12:37:24;49.50;51.60
25923;DHT22;13725;51.170;4.442;2023-09-08T12:39:50;49.50;50.80
25923;DHT22;13725;51.170;4.442;2023-09-08T12:42:18;49.30;49.10
25923;DHT22;13725;51.170;4.442;2023-09-08T12:44:44;49.20;49.50
25923;DHT22;13725;51.170;4.442;2023-09-08T12:47:10;49.20;51.50
25923;DHT22;13725;51.170;4.442;2023-09-08T12:49:37;49.20;52.00
25923;DHT22;13725;51.170;4.442;2023-09-08T12:52:03;49.20;51.70
25923;DHT22;13725;51.170;4.442;2023-09-08T12:54:29;49.10;50.90
25923;DHT22;13725;51.170;4.442;2023-09-08T12:56:55;48.90;52.20
25923;DHT22;13725;51.170;4.442;2023-09-08T12:59:21;48.70;52.40
25923;DHT22;13725;51.170;4.442;2023-09-08T13:01:46;48.60;52.60
25923;DHT22;13725;51.170;4.442;2023-09-08T13:04:12;48.50;52.60
25923;DHT22;13725;51.170;4.442;2023-09-08T13:06:38;48.20;52.50
25923;DHT22;13725;51.170;4.442;2023-09-08T13:09:04;47.50;51.80
25923;DHT22;13725;51.170;4.442;2023-09-08T13:11:31;47.20;52.30
25923;DHT22;13725;51.170;4.442;2023-09-08T13:13:56;47.00;51.80
25923;DHT22;13725;51.170;4.442;2023-09-08T13:16:22;46.90;51.80
25923;DHT22;13725;51.170;4.442;2023-09-08T13:18:48;46.80;53.90
25923;DHT22;13725;51.170;4.442;2023-09-08T13:21:15;46.70;54.70
25923;DHT22;13725;51.170;4.442;2023-09-08T13:23:41;46.60;53.90
25923;DHT22;13725;51.170;4.442;2023-09-08T13:26:06;46.70;53.40
25923;DHT22;13725;51.170;4.442;2023-09-08T13:28:32;46.70;53.80
25923;DHT22;13725;51.170;4.442;2023-09-08T13:30:58;46.50;53.70
25923;DHT22;13725;51.170;4.442;2023-09-08T13:33:24;46.30;54.00
25923;DHT22;13725;51.170;4.442;2023-09-08T13:35:49;46.00;52.70
25923;DHT22;13725;51.170;4.442;2023-09-08T13:38:15;45.50;52.40
25923;DHT22;13725;51.170;4.442;2023-09-08T13:40:41;45.20;55.70
25923;DHT22;13725;51.170;4.442;2023-09-08T13:43:07;45.10;56.60
25923;DHT22;13725;51.170;4.442;2023-09-08T13:45:33;45.00;53.60
25923;DHT22;13725;51.170;4.442;2023-09-08T13:47:59;44.90;55.30
25923;DHT22;13725;51.170;4.442;2023-09-08T13:50:24;44.90;55.40
25923;DHT22;13725;51.170;4.442;2023-09-08T13:52:50;44.70;57.20
25923;DHT22;13725;51.170;4.442;2023-09-08T13:55:16;44.60;57.60
25923;DHT22;13725;51.170;4.442;2023-09-08T13:57:42;44.70;54.30
25923;DHT22;13725;51.170;4.442;2023-09-08T14:00:08;44.90;56.10
25923;DHT22;13725;51.170;4.442;2023-09-08T14:02:37;45.30;55.30
25923;DHT22;13725;51.170;4.442;2023-09-08T14:05:03;45.40;56.70
25923;DHT22;13725;51.170;4.442;2023-09-08T14:07:28;45.20;57.30
25923;DHT22;13725;51.170;4.442;2023-09-08T14:09:54;45.00;57.30
25923;DHT22;13725;51.170;4.442;2023-09-08T14:12:20;44.50;56.70
25923;DHT22;13725;51.170;4.442;2023-09-08T14:14:46;43.80;56.90
25923;DHT22;13725;51.170;4.442;2023-09-08T14:17:11;42.80;59.30
25923;DHT22;13725;51.170;4.442;2023-09-08T14:19:37;41.60;60.70
25923;DHT22;13725;51.170;4.442;2023-09-08T14:22:03;40.50;63.10
25923;DHT22;13725;51.170;4.442;2023-09-08T14:24:30;39.70;64.30
25923;DHT22;13725;51.170;4.442;2023-09-08T14:26:55;38.70;66.00
25923;DHT22;13725;51.170;4.442;2023-09-08T14:29:22;38.10;67.80
25923;DHT22;13725;51.170;4.442;2023-09-08T14:31:49;37.50;70.30
25923;DHT22;13725;51.170;4.442;2023-09-08T14:34:15;37.00;71.80
25923;DHT22;13725;51.170;4.442;2023-09-08T14:36:41;36.60;71.90
25923;DHT22;13725;51.170;4.442;2023-09-08T14:39:07;36.20;72.10
25923;DHT22;13725;51.170;4.442;2023-09-08T14:41:34;35.80;73.20
25923;DHT22;13725;51.170;4.442;2023-09-08T14:43:59;35.50;74.30
25923;DHT22;13725;51.170;4.442;2023-09-08T14:46:25;35.20;74.80
25923;DHT22;13725;51.170;4.442;2023-09-08T14:48:51;35.00;76.80
25923;DHT22;13725;51.170;4.442;2023-09-08T14:51:16;34.70;77.90
25923;DHT22;13725;51.170;4.442;2023-09-08T14:53:42;34.50;79.00
25923;DHT22;13725;51.170;4.442;2023-09-08T14:56:08;34.40;82.10
25923;DHT22;13725;51.170;4.442;2023-09-08T14:58:34;34.30;80.30
25923;DHT22;13725;51.170;4.442;2023-09-08T15:01:03;34.20;81.60
25923;DHT22;13725;51.170;4.442;2023-09-08T15:03:33;34.00;84.40
25923;DHT22;13725;51.170;4.442;2023-09-08T15:05:59;33.80;85.70
25923;DHT22;13725;51.170;4.442;2023-09-08T15:08:25;33.70;87.80
25923;DHT22;13725;51.170;4.442;2023-09-08T15:10:51;33.50;88.50
25923;DHT22;13725;51.170;4.442;2023-09-08T15:13:17;33.40;89.80
25923;DHT22;13725;51.170;4.442;2023-09-08T15:15:42;33.30;90.20
25923;DHT22;13725;51.170;4.442;2023-09-08T15:18:08;33.20;90.80
25923;DHT22;13725;51.170;4.442;2023-09-08T15:20:34;33.20;92.10
25923;DHT22;13725;51.170;4.442;2023-09-08T15:23:00;33.10;92.40
25923;DHT22;13725;51.170;4.442;2023-09-08T15:25:26;33.00;92.70
25923;DHT22;13725;51.170;4.442;2023-09-08T15:27:51;32.80;91.60
25923;DHT22;13725;51.170;4.442;2023-09-08T15:30:18;32.70;92.40
25923;DHT22;13725;51.170;4.442;2023-09-08T15:32:44;32.60;92.70
25923;DHT22;13725;51.170;4.442;2023-09-08T15:35:10;32.60;93.90